Time;durP1;ratioP1;P1;durP2;ratioP2;P2;SDS_P1;SDS_P2;PMS_P1;PMS_P2;Temp;Humidity;BMP_temperature;BMP_pressure;BME280_temperature;BME280_humidity;BME280_pressure;Samples;Min_cycle;Max_cycle;Signal;HPM_P1;HPM_P2
2021/08/10 00:01:08;;;;;;;18.90;17.00;;;;;;;30.31;53.73;101346.25;144992;564;6002;-81
2021/08/10 00:03:35;;;;;;;19.45;16.87;;;;;;;30.29;54.32;101342.78;144992;626;6002;-79
2021/08/10 00:06:01;;;;;;;19.23;17.15;;;;;;;30.28;53.70;101343.69;144992;589;6002;-78
2021/08/10 00:08:28;;;;;;;18.98;17.08;;;;;;;30.25;54.18;101342.97;144992;584;6002;-79
2021/08/10 00:10:54;;;;;;;20.02;17.92;;;;;;;30.22;54.19;101346.63;144992;572;6002;-79
2021/08/10 00:13:23;;;;;;;20.60;18.40;;;;;;;30.16;54.28;101338.84;144992;602;6002;-79
2021/08/10 00:15:50;;;;;;;20.88;18.87;;;;;;;30.13;54.06;101339.88;144992;572;6002;-79
2021/08/10 00:18:16;;;;;;;20.48;18.27;;;;;;;30.11;53.84;101340.88;144992;570;6002;-79
2021/08/10 00:20:43;;;;;;;20.02;18.02;;;;;;;30.10;54.03;101344.47;144992;586;6002;-79
2021/08/10 00:23:10;;;;;;;18.95;17.17;;;;;;;30.09;53.95;101342.75;144992;593;6002;-80
2021/08/10 00:25:39;;;;;;;20.88;17.75;;;;;;;30.07;54.56;101341.91;144991;592;6002;-79
2021/08/10 00:28:05;;;;;;;19.87;17.77;;;;;;;30.07;53.95;101340.12;144992;583;6002;-79
2021/08/10 00:30:32;;;;;;;20.58;18.45;;;;;;;30.07;54.32;101333.88;144992;620;6003;-80
2021/08/10 00:32:58;;;;;;;21.20;18.12;;;;;;;30.07;53.84;101339.25;144992;585;6002;-79
2021/08/10 00:35:25;;;;;;;20.17;18.17;;;;;;;30.05;53.91;101333.97;144992;603;6002;-79
2021/08/10 00:37:51;;;;;;;20.65;18.55;;;;;;;30.03;54.31;101328.69;144992;673;6003;-79
2021/08/10 00:40:20;;;;;;;20.00;18.05;;;;;;;30.01;53.82;101327.88;144992;628;6002;-81
2021/08/10 00:42:47;;;;;;;18.95;17.00;;;;;;;30.00;54.25;101334.19;144992;629;6002;-79
2021/08/10 00:45:14;;;;;;;19.65;16.33;;;;;;;30.00;53.85;101333.28;144992;584;6002;-79
2021/08/10 00:47:40;;;;;;;16.50;14.60;;;;;;;30.00;53.82;101330.59;144992;604;6002;-80
2021/08/10 00:50:08;;;;;;;16.48;14.65;;;;;;;30.00;54.59;101338.63;144992;576;6002;-79
2021/08/10 00:52:34;;;;;;;16.15;14.48;;;;;;;29.99;54.51;101332.44;144992;586;6002;-79
2021/08/10 00:55:05;;;;;;;16.17;14.68;;;;;;;29.98;54.03;101330.66;144992;593;6002;-79
2021/08/10 00:57:31;;;;;;;16.10;14.40;;;;;;;29.98;54.78;101340.50;144992;578;6002;-80
2021/08/10 01:00:00;;;;;;;16.62;13.98;;;;;;;29.95;54.71;101346.00;144992;604;6002;-79
2021/08/10 01:02:27;;;;;;;19.90;14.30;;;;;;;29.94;54.27;101344.25;144992;588;6002;-79
2021/08/10 01:04:54;;;;;;;17.87;13.75;;;;;;;29.92;54.16;101349.66;144992;608;6002;-80
2021/08/10 01:07:48;;;;;;;17.37;14.45;;;;;;;29.82;55.00;101345.63;144992;565;6002;-80
2021/08/10 01:10:25;;;;;;;15.82;14.02;;;;;;;29.78;54.80;101346.66;144992;573;6002;-80
2021/08/10 01:13:22;;;;;;;16.15;14.38;;;;;;;29.78;54.93;101350.22;144992;587;6002;-79
2021/08/10 01:16:35;;;;;;;15.45;13.95;;;;;;;29.78;54.32;101343.97;144992;603;6004;-79
2021/08/10 01:20:01;;;;;;;16.50;13.43;;;;;;;29.84;54.89;101339.28;144992;572;6002;-80
2021/08/10 01:22:29;;;;;;;15.70;14.20;;;;;;;29.90;54.54;101329.28;144992;652;6002;-79
2021/08/10 01:25:29;;;;;;;21.17;19.17;;;;;;;29.90;54.50;101329.28;144992;601;6002;-87
2021/08/10 01:28:41;;;;;;;25.37;22.77;;;;;;;29.89;54.18;101323.06;144992;569;6002;-80
2021/08/10 01:31:34;;;;;;;26.05;23.33;;;;;;;29.86;53.99;101323.19;144992;600;6004;-80
2021/08/10 01:34:37;;;;;;;27.30;24.50;;;;;;;29.83;53.96;101321.50;144992;568;6004;-80
2021/08/10 01:37:08;;;;;;;28.10;24.30;;;;;;;29.83;53.79;101318.81;144992;570;6003;-80
2021/08/10 01:39:37;;;;;;;26.58;23.90;;;;;;;29.82;53.41;101313.53;144992;597;6002;-79
2021/08/10 01:42:05;;;;;;;28.12;24.77;;;;;;;29.79;53.20;101305.63;144992;606;6002;-78
2021/08/10 01:44:33;;;;;;;28.60;25.60;;;;;;;29.77;53.28;101315.50;144992;571;6002;-79
2021/08/10 01:47:02;;;;;;;28.87;26.08;;;;;;;29.75;53.17;101301.28;144992;654;6002;-79
2021/08/10 01:49:30;;;;;;;29.70;26.58;;;;;;;29.73;53.08;101303.16;144992;572;6002;-79
2021/08/10 01:51:59;;;;;;;29.05;25.95;;;;;;;29.70;53.61;101295.25;144991;578;6002;-79
2021/08/10 01:54:28;;;;;;;28.65;25.73;;;;;;;29.69;53.01;101306.91;144992;693;6002;-79
2021/08/10 01:56:55;;;;;;;28.62;25.70;;;;;;;29.67;53.31;101312.34;144992;574;6002;-79
2021/08/10 01:59:22;;;;;;;29.12;26.15;;;;;;;29.66;53.47;101316.78;144992;595;6002;-79
2021/08/10 02:01:50;;;;;;;32.17;26.23;;;;;;;29.65;53.27;101314.19;144992;613;6002;-79
2021/08/10 02:04:19;;;;;;;25.73;23.02;;;;;;;29.61;53.23;101304.56;144992;593;6002;-79
2021/08/10 02:06:48;;;;;;;19.83;17.70;;;;;;;29.57;53.43;101311.81;144992;620;6002;-80
2021/08/10 02:09:19;;;;;;;18.87;17.02;;;;;;;29.56;53.97;101310.09;144992;566;6002;-79
2021/08/10 02:11:48;;;;;;;21.95;17.45;;;;;;;29.56;54.27;101318.13;144992;620;6002;-79
2021/08/10 02:14:23;;;;;;;19.17;16.30;;;;;;;29.59;53.67;101319.78;144992;609;6002;-80
2021/08/10 02:16:50;;;;;;;;;;;;;;;29.58;54.19;101326.06;144997;911;6002;-80
2021/08/10 02:19:17;;;;;;;22.10;18.17;;;;;;;29.57;54.12;101330.53;144997;569;6002;-79
2021/08/10 02:21:46;;;;;;;22.15;19.77;;;;;;;29.56;54.27;101327.91;144992;581;6002;-80
2021/08/10 02:24:25;;;;;;;21.98;19.35;;;;;;;29.58;54.13;101326.06;144992;609;6002;-79
2021/08/10 02:27:14;;;;;;;23.02;20.65;;;;;;;29.58;54.24;101334.97;144992;583;6002;-80
2021/08/10 02:29:44;;;;;;;30.40;23.60;;;;;;;29.59;54.40;101335.81;144992;596;6002;-77
2021/08/10 02:32:36;;;;;;;27.13;24.48;;;;;;;29.61;54.34;101337.50;144992;603;6002;-83
2021/08/10 02:35:04;;;;;;;28.17;25.25;;;;;;;29.67;54.17;101344.44;144992;592;6002;-79
2021/08/10 02:37:34;;;;;;;29.60;24.45;;;;;;;29.74;53.65;101343.22;144993;604;6002;-80
2021/08/10 02:40:05;;;;;;;26.45;23.35;;;;;;;29.75;53.57;101345.00;144993;599;6002;-78
2021/08/10 02:42:32;;;;;;;24.67;21.98;;;;;;;29.69;53.79;101350.59;144993;594;6002;-79
2021/08/10 02:45:01;;;;;;;23.85;21.35;;;;;;;29.65;54.39;101348.94;144993;585;6002;-78
2021/08/10 02:47:31;;;;;;;23.27;20.73;;;;;;;29.56;54.75;101352.88;144993;569;6002;-79
2021/08/10 02:49:58;;;;;;;22.80;20.50;;;;;;;29.46;54.54;101356.84;144993;587;6002;-80
2021/08/10 02:52:24;;;;;;;22.90;20.23;;;;;;;29.35;54.66;101359.06;144993;583;6002;-81
2021/08/10 02:54:51;;;;;;;22.75;20.37;;;;;;;29.33;55.05;101358.25;144993;591;6002;-79
2021/08/10 02:57:39;;;;;;;23.12;20.70;;;;;;;29.33;55.17;101363.59;144993;578;6002;-78
2021/08/10 03:00:10;;;;;;;21.98;19.83;;;;;;;29.33;55.04;101366.28;144993;571;6002;-78
2021/08/10 03:02:50;;;;;;;22.08;19.85;;;;;;;29.34;55.41;101363.56;144993;624;6002;-79
2021/08/10 03:05:18;;;;;;;21.42;19.10;;;;;;;29.39;54.81;101368.72;144993;585;6002;-77
2021/08/10 03:07:54;;;;;;;22.45;20.25;;;;;;;29.42;55.40;101373.94;144993;632;6002;-78
2021/08/10 03:10:23;;;;;;;21.77;19.58;;;;;;;29.42;55.06;101373.94;144992;605;6002;-79
2021/08/10 03:12:52;;;;;;;22.85;20.40;;;;;;;29.40;55.45;101375.78;144992;594;6002;-78
2021/08/10 03:15:23;;;;;;;22.55;20.30;;;;;;;29.40;55.17;101378.47;144992;578;6002;-78
2021/08/10 03:17:56;;;;;;;22.77;20.45;;;;;;;29.42;55.72;101372.13;144992;600;6002;-78
2021/08/10 03:20:24;;;;;;;23.38;20.88;;;;;;;29.43;55.12;101381.03;144992;590;6002;-78
2021/08/10 03:22:53;;;;;;;23.30;20.95;;;;;;;29.43;55.57;101368.53;144993;574;6002;-81
2021/08/10 03:25:21;;;;;;;24.08;20.80;;;;;;;29.42;56.06;101372.13;144993;619;6002;-80
2021/08/10 03:27:52;;;;;;;26.52;20.70;;;;;;;29.35;55.42;101365.31;144993;656;6002;-80
2021/08/10 03:30:19;;;;;;;23.27;20.83;;;;;;;29.36;55.23;101366.16;144993;629;6002;-80
2021/08/10 03:32:47;;;;;;;23.92;19.92;;;;;;;29.25;55.49;101361.22;144993;571;6002;-79
2021/08/10 03:35:13;;;;;;;22.42;20.02;;;;;;;29.24;55.44;101360.38;144993;580;6002;-79
2021/08/10 03:37:40;;;;;;;22.98;20.42;;;;;;;29.23;55.72;101355.94;144993;652;6002;-80
2021/08/10 03:40:08;;;;;;;30.62;22.37;;;;;;;29.23;55.35;101355.06;144993;593;6002;-78
2021/08/10 03:42:36;;;;;;;25.17;22.58;;;;;;;29.23;55.06;101353.25;144993;569;6002;-78
2021/08/10 03:45:04;;;;;;;29.08;23.52;;;;;;;29.29;55.39;101353.03;144993;628;6002;-78
2021/08/10 03:47:32;;;;;;;28.05;23.40;;;;;;;29.37;55.94;101350.06;144993;648;6002;-78
2021/08/10 03:49:59;;;;;;;34.38;23.70;;;;;;;29.38;55.51;101348.25;144993;711;6002;-78
2021/08/10 03:52:26;;;;;;;36.80;25.40;;;;;;;29.35;55.43;101348.38;144993;572;6002;-79
2021/08/10 03:54:53;;;;;;;29.83;24.70;;;;;;;29.27;54.21;101346.00;144993;573;6002;-79
2021/08/10 03:57:21;;;;;;;27.00;24.27;;;;;;;29.14;55.62;101342.88;144993;584;6002;-78
2021/08/10 03:59:51;;;;;;;28.62;24.15;;;;;;;29.12;55.36;101345.63;144993;602;6002;-80
2021/08/10 04:02:19;;;;;;;31.12;24.30;;;;;;;29.14;55.60;101348.22;144993;570;6002;-80
2021/08/10 04:04:49;;;;;;;26.90;23.95;;;;;;;29.17;54.92;101350.78;144993;636;6002;-79
2021/08/10 04:07:16;;;;;;;27.65;24.40;;;;;;;29.20;54.69;101355.19;144993;583;6002;-79
2021/08/10 04:09:43;;;;;;;27.50;24.63;;;;;;;29.22;54.83;101361.34;144993;591;6002;-78
2021/08/10 04:12:12;;;;;;;27.58;24.63;;;;;;;29.21;54.30;101355.13;144993;594;6002;-79
2021/08/10 04:14:43;;;;;;;29.37;26.20;;;;;;;29.22;54.10;101359.53;144993;578;6002;-79
2021/08/10 04:17:10;;;;;;;27.55;24.85;;;;;;;29.22;54.27;101348.84;144994;588;5002;-78
2021/08/10 04:19:52;;;;;;;28.23;25.27;;;;;;;29.26;54.02;101354.97;144994;576;5002;-77
2021/08/10 04:22:20;;;;;;;30.02;26.87;;;;;;;29.19;54.04;101351.66;144994;627;5002;-78
2021/08/10 04:24:47;;;;;;;30.55;27.23;;;;;;;29.19;54.25;101361.47;144994;563;5002;-78
2021/08/10 04:27:17;;;;;;;30.42;27.33;;;;;;;29.17;54.33;101361.47;144994;605;5002;-77
2021/08/10 04:29:44;;;;;;;30.27;27.27;;;;;;;29.17;54.33;101356.13;144994;629;5002;-78
2021/08/10 04:32:11;;;;;;;31.15;28.12;;;;;;;29.19;54.19;101354.31;144994;581;5002;-79
2021/08/10 04:34:37;;;;;;;31.20;27.87;;;;;;;29.24;53.68;101357.69;144994;607;5002;-79
2021/08/10 04:37:04;;;;;;;30.25;27.08;;;;;;;29.29;54.07;101363.72;144994;613;5002;-78
2021/08/10 04:39:31;;;;;;;33.08;28.25;;;;;;;29.33;53.91;101364.47;144994;651;5002;-79
2021/08/10 04:41:57;;;;;;;31.75;28.45;;;;;;;29.36;53.43;101374.19;144994;578;5002;-78
2021/08/10 04:44:24;;;;;;;32.60;29.30;;;;;;;29.39;53.41;101379.41;144994;593;5002;-79
2021/08/10 04:46:50;;;;;;;33.20;29.90;;;;;;;29.40;53.63;101376.69;144994;624;5002;-79
2021/08/10 04:49:17;;;;;;;38.35;31.20;;;;;;;29.40;52.48;101381.12;144994;610;5002;-78
2021/08/10 04:51:44;;;;;;;33.45;29.95;;;;;;;29.40;53.33;101387.38;144994;612;5002;-80
2021/08/10 04:54:16;;;;;;;33.47;29.23;;;;;;;29.41;53.82;101377.53;144994;586;5002;-79
2021/08/10 04:56:42;;;;;;;32.53;29.00;;;;;;;29.45;53.29;101385.41;144994;599;5002;-79
2021/08/10 04:59:09;;;;;;;35.72;30.12;;;;;;;29.52;53.41;101387.84;144994;576;5002;-80
2021/08/10 05:01:38;;;;;;;34.47;28.73;;;;;;;29.55;53.57;101390.38;144994;599;5002;-79
2021/08/10 05:04:08;;;;;;;31.45;27.52;;;;;;;29.58;53.58;101384.91;144994;597;5002;-79
2021/08/10 05:06:36;;;;;;;31.95;28.42;;;;;;;29.65;53.39;101381.06;144994;585;5002;-80
2021/08/10 05:09:04;;;;;;;31.80;28.60;;;;;;;29.74;53.35;101379.84;144994;596;5002;-78
2021/08/10 05:11:30;;;;;;;34.40;30.55;;;;;;;29.79;52.81;101372.50;144994;574;5002;-80
2021/08/10 05:13:56;;;;;;;33.95;30.02;;;;;;;29.78;53.35;101365.37;144993;570;5002;-79
2021/08/10 05:16:23;;;;;;;34.58;31.10;;;;;;;29.81;52.82;101360.84;144994;589;5002;-79
2021/08/10 05:18:49;;;;;;;33.78;30.17;;;;;;;29.86;53.06;101357.97;144994;632;5002;-79
2021/08/10 05:21:16;;;;;;;34.97;30.85;;;;;;;29.88;52.95;101349.88;144994;564;5002;-80
2021/08/10 05:23:43;;;;;;;38.90;32.80;;;;;;;29.86;52.45;101347.25;144994;570;5002;-79
2021/08/10 05:26:09;;;;;;;41.85;34.53;;;;;;;29.87;52.44;101340.97;144994;618;5002;-80
2021/08/10 05:28:36;;;;;;;38.60;33.42;;;;;;;29.85;52.19;101349.03;144994;565;5002;-79
2021/08/10 05:31:02;;;;;;;37.10;32.00;;;;;;;29.86;52.55;101355.28;144994;587;5002;-79
2021/08/10 05:33:30;;;;;;;36.17;32.40;;;;;;;29.70;52.57;101356.78;144993;585;5002;-78
2021/08/10 05:35:57;;;;;;;39.95;32.78;;;;;;;29.64;52.97;101348.09;144994;605;5002;-79
2021/08/10 05:38:23;;;;;;;37.38;32.45;;;;;;;29.58;52.92;101347.47;144994;601;5002;-78
2021/08/10 05:40:53;;;;;;;37.25;32.67;;;;;;;29.58;53.32;101355.50;144994;610;5002;-79
2021/08/10 05:43:20;;;;;;;38.58;33.30;;;;;;;29.59;53.50;101358.13;144994;578;5003;-79
2021/08/10 05:45:46;;;;;;;37.75;33.65;;;;;;;29.66;53.36;101364.94;144994;566;5002;-78
2021/08/10 05:48:12;;;;;;;41.90;34.50;;;;;;;29.75;53.46;101370.84;144994;577;5002;-80
2021/08/10 05:50:39;;;;;;;42.90;34.22;;;;;;;29.72;52.98;101369.19;144994;594;5003;-78
2021/08/10 05:53:06;;;;;;;38.75;34.80;;;;;;;29.80;53.61;101376.94;144994;593;5002;-78
2021/08/10 05:55:32;;;;;;;40.35;35.95;;;;;;;29.81;54.01;101382.22;144994;570;5002;-76
2021/08/10 05:57:59;;;;;;;38.42;34.33;;;;;;;29.69;54.44;101380.00;144994;583;5002;-78
2021/08/10 06:00:25;;;;;;;37.40;33.50;;;;;;;29.59;55.70;101378.63;144994;615;5002;-80
2021/08/10 06:02:54;;;;;;;36.55;32.83;;;;;;;29.59;56.06;101387.53;144994;567;5002;-80
2021/08/10 06:05:21;;;;;;;37.10;33.28;;;;;;;29.61;56.19;101395.50;144994;612;5002;-79
2021/08/10 06:07:48;;;;;;;36.88;32.97;;;;;;;29.61;57.08;101393.69;144994;574;5002;-81
2021/08/10 06:10:14;;;;;;;37.75;33.40;;;;;;;29.60;56.79;101407.13;144993;635;5002;-78
2021/08/10 06:12:41;;;;;;;36.60;32.63;;;;;;;29.72;58.50;101411.12;144994;650;5002;-79
2021/08/10 06:15:08;;;;;;;37.47;33.88;;;;;;;29.79;58.29;101420.69;144994;616;5002;-80
2021/08/10 06:17:35;;;;;;;38.97;35.08;;;;;;;29.89;57.42;101421.19;144994;689;5002;-79
2021/08/10 06:20:01;;;;;;;38.85;34.80;;;;;;;29.94;57.62;101428.09;144994;660;5002;-80
2021/08/10 06:22:27;;;;;;;40.70;35.67;;;;;;;30.06;57.35;101428.53;144994;576;5002;-80
2021/08/10 06:24:54;;;;;;;38.78;34.65;;;;;;;30.16;56.94;101430.78;144994;569;5002;-79
2021/08/10 06:27:22;;;;;;;38.30;34.28;;;;;;;30.26;57.20;101441.97;144994;589;5002;-80
2021/08/10 06:29:49;;;;;;;41.40;37.28;;;;;;;30.39;56.91;101445.03;144994;592;5002;-80
2021/08/10 06:32:16;;;;;;;39.47;35.53;;;;;;;30.52;56.29;101445.38;144994;607;5002;-78
2021/08/10 06:34:45;;;;;;;38.90;34.88;;;;;;;30.66;56.36;101443.00;144994;580;5002;-77
2021/08/10 06:37:12;;;;;;;39.17;35.10;;;;;;;30.82;56.36;101442.34;144994;588;5002;-80
2021/08/10 06:39:38;;;;;;;39.50;35.67;;;;;;;30.95;56.35;101442.66;144994;618;5002;-79
2021/08/10 06:42:04;;;;;;;41.58;37.08;;;;;;;30.98;55.85;101445.25;144994;634;5002;-79
2021/08/10 06:44:31;;;;;;;41.20;35.90;;;;;;;30.97;56.47;101451.53;144994;572;5002;-80
2021/08/10 06:47:00;;;;;;;41.08;36.88;;;;;;;31.06;56.08;101451.13;144994;673;5002;-81
2021/08/10 06:49:27;;;;;;;42.80;38.13;;;;;;;31.13;55.52;101452.56;144994;563;5002;-77
2021/08/10 06:51:54;;;;;;;42.50;37.50;;;;;;;31.17;55.67;101454.19;144994;584;5002;-77
2021/08/10 06:54:21;;;;;;;40.55;36.42;;;;;;;31.26;55.55;101455.56;144994;654;5002;-79
2021/08/10 06:56:47;;;;;;;42.95;37.53;;;;;;;31.39;55.14;101461.28;144994;570;5002;-80
2021/08/10 06:59:13;;;;;;;43.45;38.85;;;;;;;31.51;54.94;101449.09;144994;611;5002;-79
2021/08/10 07:01:40;;;;;;;41.37;37.20;;;;;;;31.60;54.61;101459.41;144994;569;5002;-79
2021/08/10 07:04:06;;;;;;;40.22;35.72;;;;;;;31.72;54.07;101461.53;144994;664;5002;-80
2021/08/10 07:06:33;;;;;;;41.97;37.60;;;;;;;31.82;54.25;101453.91;144994;590;5002;-79
2021/08/10 07:09:04;;;;;;;42.40;37.60;;;;;;;31.86;53.62;101447.44;144994;665;5002;-79
2021/08/10 07:11:31;;;;;;;33.58;30.30;;;;;;;31.94;53.65;101458.66;144994;641;5002;-80
2021/08/10 07:13:58;;;;;;;33.10;29.83;;;;;;;31.93;49.34;101443.50;144994;596;5002;-79
2021/08/10 07:16:24;;;;;;;30.17;27.13;;;;;;;32.01;52.88;101448.50;144994;655;5002;-79
2021/08/10 07:18:53;;;;;;;22.35;20.15;;;;;;;32.01;51.54;101440.47;144994;744;5002;-80
2021/08/10 07:21:20;;;;;;;21.65;19.42;;;;;;;32.00;51.47;101431.50;144994;668;5002;-79
2021/08/10 07:23:46;;;;;;;19.83;17.80;;;;;;;32.04;50.02;101437.63;144994;713;5002;-79
2021/08/10 07:26:13;;;;;;;22.73;20.40;;;;;;;32.03;49.73;101433.19;144994;586;5002;-80
2021/08/10 07:28:39;;;;;;;25.15;22.60;;;;;;;32.03;48.14;101433.19;144994;593;5002;-79
2021/08/10 07:31:06;;;;;;;23.23;20.90;;;;;;;32.06;49.34;101433.03;144994;564;5002;-79
2021/08/10 07:33:32;;;;;;;23.80;21.40;;;;;;;32.13;48.82;101429.13;144994;698;5002;-80
2021/08/10 07:35:59;;;;;;;23.62;20.62;;;;;;;32.19;48.40;101427.97;144994;622;5002;-79
2021/08/10 07:38:25;;;;;;;23.48;21.20;;;;;;;32.20;43.76;101418.97;144994;572;5002;-77
2021/08/10 07:40:52;;;;;;;22.65;20.37;;;;;;;32.29;47.14;101420.31;144994;627;5002;-78
2021/08/10 07:43:18;;;;;;;23.98;21.27;;;;;;;32.31;47.22;101431.81;144994;612;5002;-80
2021/08/10 07:45:45;;;;;;;22.95;20.52;;;;;;;32.29;41.39;101425.69;144994;695;5002;-79
2021/08/10 07:48:11;;;;;;;18.27;16.48;;;;;;;32.42;45.56;101428.59;144994;663;5002;-79
2021/08/10 07:50:38;;;;;;;16.37;14.80;;;;;;;32.18;41.12;101426.22;144994;569;5002;-80
2021/08/10 07:53:04;;;;;;;12.98;11.70;;;;;;;32.10;42.16;101425.72;144994;736;5002;-79
2021/08/10 07:55:31;;;;;;;10.80;9.80;;;;;;;32.03;38.05;101424.28;144993;703;5002;-78
2021/08/10 07:57:57;;;;;;;15.07;13.48;;;;;;;32.09;42.54;101424.00;144994;600;5002;-78
2021/08/10 08:00:24;;;;;;;16.05;14.38;;;;;;;32.07;41.45;101429.41;144994;595;5002;-78
2021/08/10 08:02:50;;;;;;;13.70;12.30;;;;;;;32.16;41.93;101439.72;144994;601;5002;-79
2021/08/10 08:05:18;;;;;;;10.38;9.38;;;;;;;32.32;41.58;101437.13;144994;643;5002;-79
2021/08/10 08:07:45;;;;;;;11.75;10.75;;;;;;;32.32;38.25;101431.75;144994;596;5002;-80
2021/08/10 08:10:12;;;;;;;13.15;11.88;;;;;;;32.39;40.92;101426.06;144994;609;5002;-79
2021/08/10 08:12:38;;;;;;;15.38;13.88;;;;;;;32.37;41.54;101434.22;144994;570;5002;-80
2021/08/10 08:15:06;;;;;;;16.58;14.98;;;;;;;32.37;40.80;101423.47;144994;593;5002;-78
2021/08/10 08:17:33;;;;;;;17.20;15.40;;;;;;;32.43;41.27;101428.53;144994;610;5002;-80
2021/08/10 08:20:00;;;;;;;17.85;15.90;;;;;;;32.29;40.84;101423.00;144994;564;5002;-81
2021/08/10 08:22:28;;;;;;;15.38;13.75;;;;;;;32.33;40.60;101411.16;144994;598;5002;-80
2021/08/10 08:24:54;;;;;;;12.75;11.52;;;;;;;32.32;38.78;101421.00;144994;623;5002;-81
2021/08/10 08:27:21;;;;;;;13.35;12.05;;;;;;;32.37;41.28;101412.72;144994;564;5002;-78
2021/08/10 08:29:47;;;;;;;14.63;13.20;;;;;;;32.18;37.93;101421.72;144994;592;5002;-80
2021/08/10 08:32:14;;;;;;;15.65;14.15;;;;;;;32.23;40.92;101421.50;144994;601;5002;-81
2021/08/10 08:34:41;;;;;;;16.25;14.75;;;;;;;32.30;41.51;101419.38;144994;573;5003;-77
2021/08/10 08:37:07;;;;;;;18.05;16.30;;;;;;;32.28;40.64;101424.81;144994;607;5002;-80
2021/08/10 08:39:34;;;;;;;20.23;18.30;;;;;;;32.35;40.54;101425.38;144994;600;5002;-81
2021/08/10 08:42:01;;;;;;;18.30;16.42;;;;;;;32.44;39.60;101424.91;144994;570;5003;-79
2021/08/10 08:44:34;;;;;;;18.65;16.77;;;;;;;32.34;40.03;101418.25;144994;582;5002;-79
2021/08/10 08:47:09;;;;;;;18.05;16.17;;;;;;;32.47;41.08;101419.38;144994;620;5002;-80
2021/08/10 08:49:36;;;;;;;18.02;16.33;;;;;;;32.53;40.91;101416.37;144994;583;4566;-80
2021/08/10 08:52:06;;;;;;;17.58;15.80;;;;;;;32.54;40.75;101420.78;144994;580;4572;-80
2021/08/10 08:54:33;;;;;;;17.73;16.08;;;;;;;32.60;40.86;101416.91;144994;575;4572;-80
2021/08/10 08:57:00;;;;;;;16.70;15.10;;;;;;;32.62;41.38;101414.16;144992;581;6002;-80
2021/08/10 08:59:28;;;;;;;16.27;14.77;;;;;;;32.76;41.29;101418.84;144992;598;6002;-80
2021/08/10 09:01:57;;;;;;;18.75;16.40;;;;;;;32.69;42.20;101412.91;144992;598;6002;-79
2021/08/10 09:04:23;;;;;;;18.02;16.35;;;;;;;32.60;42.70;101424.13;144992;576;6002;-78
2021/08/10 09:06:50;;;;;;;19.37;17.50;;;;;;;32.62;43.13;101419.53;144992;596;6002;-80
2021/08/10 09:09:27;;;;;;;18.45;16.58;;;;;;;32.62;43.48;101411.47;144991;612;6002;-79
2021/08/10 09:12:08;;;;;;;18.70;17.00;;;;;;;32.52;44.36;101411.94;144992;589;6002;-80
2021/08/10 09:14:53;;;;;;;19.23;17.17;;;;;;;32.33;44.84;101401.28;144992;564;6002;-80
2021/08/10 09:17:21;;;;;;;19.62;17.52;;;;;;;32.41;45.38;101397.34;144992;588;6002;-79
2021/08/10 09:19:58;;;;;;;19.75;17.65;;;;;;;32.38;45.83;101398.34;144992;574;6002;-79
2021/08/10 09:22:31;;;;;;;20.15;18.05;;;;;;;32.31;46.43;101397.81;144992;594;6002;-80
2021/08/10 09:25:06;;;;;;;20.12;18.02;;;;;;;32.30;46.04;101389.81;144992;593;6002;-81
2021/08/10 09:27:38;;;;;;;21.37;19.27;;;;;;;32.40;46.43;101399.13;144992;590;6002;-79
2021/08/10 09:30:11;;;;;;;21.58;19.50;;;;;;;32.35;47.31;101390.44;144992;570;6002;-79
2021/08/10 09:33:09;;;;;;;21.62;19.58;;;;;;;32.12;47.48;101399.66;144992;573;6002;-80
2021/08/10 09:35:37;;;;;;;21.98;19.95;;;;;;;32.05;47.84;101399.06;144992;571;6004;-80
2021/08/10 09:38:12;;;;;;;23.67;21.27;;;;;;;32.06;48.88;101399.97;144992;567;6004;-80
2021/08/10 09:40:41;;;;;;;28.12;25.12;;;;;;;32.07;49.10;101401.69;144992;564;6004;-80
2021/08/10 09:43:33;;;;;;;28.90;25.85;;;;;;;31.94;48.97;101391.53;144992;594;6004;-78
2021/08/10 09:46:16;;;;;;;33.35;29.98;;;;;;;32.15;48.38;101381.59;144992;580;6002;-79
2021/08/10 09:48:57;;;;;;;28.38;25.40;;;;;;;32.26;48.23;101375.69;144992;603;6003;-80
2021/08/10 09:51:27;;;;;;;29.15;25.98;;;;;;;32.39;48.09;101377.72;144992;618;6002;-83
2021/08/10 09:54:11;;;;;;;32.58;29.17;;;;;;;32.27;48.45;101374.72;144992;632;6002;-79
2021/08/10 09:57:12;;;;;;;37.92;34.00;;;;;;;32.64;47.82;101380.03;144992;581;6004;-80
2021/08/10 09:59:41;;;;;;;39.67;35.42;;;;;;;32.78;48.48;101377.47;144992;573;6002;-79
2021/08/10 10:02:19;;;;;;;37.42;33.60;;;;;;;32.63;48.85;101394.38;144992;598;6002;-79
2021/08/10 10:04:58;;;;;;;38.00;33.90;;;;;;;32.61;49.09;101383.72;144992;579;6002;-79
2021/08/10 10:07:26;;;;;;;38.33;34.42;;;;;;;32.50;48.95;101381.59;144992;590;6002;-79
2021/08/10 10:09:53;;;;;;;37.80;33.90;;;;;;;32.46;49.24;101389.91;144992;632;6002;-78
2021/08/10 10:12:23;;;;;;;40.22;36.03;;;;;;;32.46;49.11;101380.00;144992;581;6002;-80
2021/08/10 10:14:50;;;;;;;43.22;38.78;;;;;;;32.50;49.61;101376.22;144992;584;6002;-79
2021/08/10 10:17:17;;;;;;;41.42;37.15;;;;;;;32.41;49.99;101374.00;144992;734;6002;-79
2021/08/10 10:19:45;;;;;;;41.03;36.65;;;;;;;32.45;49.41;101377.41;144992;610;6002;-78
2021/08/10 10:22:22;;;;;;;40.30;36.05;;;;;;;32.59;49.39;101374.84;144992;589;6002;-78
2021/08/10 10:24:54;;;;;;;42.72;38.17;;;;;;;32.56;49.86;101372.34;144992;583;6002;-81
2021/08/10 10:27:21;;;;;;;42.78;38.28;;;;;;;32.57;49.51;101360.66;144992;591;6002;-79
2021/08/10 10:29:50;;;;;;;45.50;40.70;;;;;;;32.54;50.01;101374.25;144992;587;6002;-78
2021/08/10 10:32:21;;;;;;;44.03;39.33;;;;;;;32.59;49.96;101352.50;144992;584;6002;-79
2021/08/10 10:34:48;;;;;;;39.08;35.08;;;;;;;32.42;51.08;101351.59;144992;609;6002;-79
2021/08/10 10:37:23;;;;;;;40.83;36.72;;;;;;;32.31;51.03;101349.44;144992;600;6002;-80
2021/08/10 10:39:57;;;;;;;39.75;35.67;;;;;;;32.48;50.79;101342.31;144992;580;6002;-79
2021/08/10 10:42:24;;;;;;;37.07;33.27;;;;;;;32.52;50.60;101346.59;144992;604;6002;-79
2021/08/10 10:44:51;;;;;;;38.45;32.45;;;;;;;32.52;50.42;101336.69;144992;596;6002;-79
2021/08/10 10:47:38;;;;;;;33.03;29.60;;;;;;;32.49;50.46;101342.25;144992;605;6002;-79
2021/08/10 10:50:15;;;;;;;27.92;24.92;;;;;;;32.48;49.03;101329.75;144992;599;6004;-79
2021/08/10 10:52:59;;;;;;;27.98;25.35;;;;;;;32.46;48.31;101323.59;144992;587;6002;-80
2021/08/10 10:55:51;;;;;;;28.42;25.48;;;;;;;32.59;48.83;101323.81;144992;644;6002;-80
2021/08/10 10:58:32;;;;;;;27.20;24.63;;;;;;;32.70;48.21;101326.81;144992;583;6004;-77
2021/08/10 11:01:16;;;;;;;29.58;26.77;;;;;;;32.82;48.89;101319.91;144992;605;6004;-79
2021/08/10 11:04:08;;;;;;;31.17;28.10;;;;;;;32.81;50.33;101318.16;144992;584;6004;-80
2021/08/10 11:06:48;;;;;;;38.08;34.25;;;;;;;32.80;50.18;101315.56;144992;644;6016;-78
2021/08/10 11:09:53;;;;;;;40.20;36.10;;;;;;;32.79;51.00;101314.72;144992;662;6002;-79
2021/08/10 11:12:44;;;;;;;;;;;;;;;32.62;52.20;101301.28;144997;911;6004;-78
2021/08/10 11:15:12;;;;;;;46.53;41.72;;;;;;;32.44;54.32;101295.94;144997;587;6002;-79
2021/08/10 11:17:39;;;;;;;47.05;42.40;;;;;;;32.52;52.71;101284.78;144992;596;6002;-78
2021/08/10 11:20:26;;;;;;;48.75;43.78;;;;;;;32.45;52.72;101289.59;144992;572;6002;-78
2021/08/10 11:23:31;;;;;;;55.63;49.90;;;;;;;32.45;52.85;101289.59;144991;594;6002;-80
2021/08/10 11:26:33;;;;;;;52.70;47.00;;;;;;;32.46;52.22;101283.28;144992;612;6004;-79
2021/08/10 11:29:01;;;;;;;49.13;44.17;;;;;;;32.37;53.30;101283.78;144992;605;6002;-80
2021/08/10 11:31:43;;;;;;;48.53;43.45;;;;;;;32.25;53.44;101279.94;144992;606;6002;-79
2021/08/10 11:34:31;;;;;;;48.35;43.35;;;;;;;32.28;53.50;101271.72;144992;595;6002;-79